sensor_id;sensor_type;location;lat;lon;timestamp;pressure;altitude;pressure_sealevel;temperature;humidity
5814;BME280;2933;52.302;8.134;2023-05-21T00:01:19;100860.81;;;12.95;100.00
5814;BME280;2933;52.302;8.134;2023-05-21T00:06:24;100854.91;;;12.91;100.00
5814;BME280;2933;52.302;8.134;2023-05-21T00:11:26;100855.09;;;12.88;100.00
5814;BME280;2933;52.302;8.134;2023-05-21T00:16:28;100853.00;;;12.80;100.00
5814;BME280;2933;52.302;8.134;2023-05-21T00:21:31;100857.59;;;12.76;100.00
5814;BME280;2933;52.302;8.134;2023-05-21T00:26:32;100855.03;;;12.62;100.00
5814;BME280;2933;52.302;8.134;2023-05-21T00:31:34;100844.44;;;12.64;100.00
5814;BME280;2933;52.302;8.134;2023-05-21T00:36:37;100854.09;;;12.63;100.00
5814;BME280;2933;52.302;8.134;2023-05-21T00:41:39;100841.94;;;12.48;100.00
5814;BME280;2933;52.302;8.134;2023-05-21T00:46:42;100831.34;;;12.64;100.00
5814;BME280;2933;52.302;8.134;2023-05-21T00:51:46;100826.03;;;12.51;100.00
5814;BME280;2933;52.302;8.134;2023-05-21T00:56:47;100828.94;;;12.46;100.00
5814;BME280;2933;52.302;8.134;2023-05-21T01:01:49;100824.81;;;12.42;100.00
5814;BME280;2933;52.302;8.134;2023-05-21T01:06:56;100816.38;;;12.51;100.00
5814;BME280;2933;52.302;8.134;2023-05-21T01:11:58;100809.69;;;12.33;100.00
5814;BME280;2933;52.302;8.134;2023-05-21T01:17:00;100809.50;;;12.36;100.00
5814;BME280;2933;52.302;8.134;2023-05-21T01:22:06;100802.47;;;12.36;100.00
5814;BME280;2933;52.302;8.134;2023-05-21T01:27:09;100811.94;;;12.24;100.00
5814;BME280;2933;52.302;8.134;2023-05-21T01:32:16;100796.66;;;12.45;100.00
5814;BME280;2933;52.302;8.134;2023-05-21T01:37:39;100803.06;;;12.27;100.00
5814;BME280;2933;52.302;8.134;2023-05-21T01:42:46;100801.84;;;12.33;100.00
5814;BME280;2933;52.302;8.134;2023-05-21T01:47:49;100790.69;;;12.43;100.00
5814;BME280;2933;52.302;8.134;2023-05-21T01:52:53;100789.78;;;12.30;100.00
5814;BME280;2933;52.302;8.134;2023-05-21T01:57:59;100783.38;;;12.34;100.00
5814;BME280;2933;52.302;8.134;2023-05-21T02:03:00;100784.63;;;12.28;100.00
5814;BME280;2933;52.302;8.134;2023-05-21T02:08:02;100785.69;;;12.11;100.00
5814;BME280;2933;52.302;8.134;2023-05-21T02:13:05;100777.44;;;12.18;100.00
5814;BME280;2933;52.302;8.134;2023-05-21T02:18:07;100773.44;;;12.12;100.00
5814;BME280;2933;52.302;8.134;2023-05-21T02:23:09;100776.63;;;12.03;100.00
5814;BME280;2933;52.302;8.134;2023-05-21T02:28:12;100776.91;;;12.12;100.00
5814;BME280;2933;52.302;8.134;2023-05-21T02:33:15;100775.50;;;12.07;100.00
5814;BME280;2933;52.302;8.134;2023-05-21T02:38:16;100766.34;;;12.00;100.00
5814;BME280;2933;52.302;8.134;2023-05-21T02:43:20;100765.50;;;11.99;100.00
5814;BME280;2933;52.302;8.134;2023-05-21T02:48:21;100772.44;;;12.00;100.00
5814;BME280;2933;52.302;8.134;2023-05-21T02:53:23;100766.34;;;11.85;100.00
5814;BME280;2933;52.302;8.134;2023-05-21T02:58:25;100758.38;;;11.87;100.00
5814;BME280;2933;52.302;8.134;2023-05-21T03:03:27;100756.53;;;11.89;100.00
5814;BME280;2933;52.302;8.134;2023-05-21T03:08:28;100756.63;;;11.73;100.00
5814;BME280;2933;52.302;8.134;2023-05-21T03:13:32;100760.38;;;11.98;100.00
5814;BME280;2933;52.302;8.134;2023-05-21T03:18:33;100758.59;;;11.84;100.00
5814;BME280;2933;52.302;8.134;2023-05-21T03:23:35;100745.88;;;11.77;100.00
5814;BME280;2933;52.302;8.134;2023-05-21T03:28:38;100748.41;;;11.50;100.00
5814;BME280;2933;52.302;8.134;2023-05-21T03:33:40;100739.72;;;11.64;100.00
5814;BME280;2933;52.302;8.134;2023-05-21T03:38:42;100732.69;;;11.64;100.00
5814;BME280;2933;52.302;8.134;2023-05-21T03:43:45;100737.19;;;11.62;100.00
5814;BME280;2933;52.302;8.134;2023-05-21T03:48:46;100745.78;;;11.64;100.00
5814;BME280;2933;52.302;8.134;2023-05-21T03:53:48;100741.59;;;11.76;100.00
5814;BME280;2933;52.302;8.134;2023-05-21T03:58:51;100743.66;;;11.71;100.00
5814;BME280;2933;52.302;8.134;2023-05-21T04:03:52;100752.69;;;11.66;100.00
5814;BME280;2933;52.302;8.134;2023-05-21T04:08:54;100746.34;;;11.70;100.00
5814;BME280;2933;52.302;8.134;2023-05-21T04:13:57;100754.22;;;11.55;100.00
5814;BME280;2933;52.302;8.134;2023-05-21T04:18:58;100761.69;;;11.61;100.00
5814;BME280;2933;52.302;8.134;2023-05-21T04:24:00;100760.75;;;11.62;100.00
5814;BME280;2933;52.302;8.134;2023-05-21T04:29:03;100757.66;;;11.56;100.00
5814;BME280;2933;52.302;8.134;2023-05-21T04:34:04;100762.91;;;11.70;100.00
5814;BME280;2933;52.302;8.134;2023-05-21T04:39:06;100765.34;;;11.59;100.00
5814;BME280;2933;52.302;8.134;2023-05-21T04:44:08;100755.69;;;11.74;100.00
5814;BME280;2933;52.302;8.134;2023-05-21T04:49:10;100755.50;;;11.77;100.00
5814;BME280;2933;52.302;8.134;2023-05-21T04:54:11;100751.13;;;11.77;100.00
5814;BME280;2933;52.302;8.134;2023-05-21T04:59:14;100756.22;;;12.08;100.00
5814;BME280;2933;52.302;8.134;2023-05-21T05:04:16;100751.53;;;12.27;100.00
5814;BME280;2933;52.302;8.134;2023-05-21T05:09:18;100752.50;;;12.39;100.00
5814;BME280;2933;52.302;8.134;2023-05-21T05:14:22;100747.06;;;12.42;100.00
5814;BME280;2933;52.302;8.134;2023-05-21T05:19:23;100755.50;;;12.60;100.00
5814;BME280;2933;52.302;8.134;2023-05-21T05:24:25;100750.75;;;12.40;100.00
5814;BME280;2933;52.302;8.134;2023-05-21T05:29:27;100741.53;;;12.87;100.00
5814;BME280;2933;52.302;8.134;2023-05-21T05:34:29;100736.06;;;12.77;100.00
5814;BME280;2933;52.302;8.134;2023-05-21T05:39:31;100735.75;;;12.82;100.00
5814;BME280;2933;52.302;8.134;2023-05-21T05:44:34;100732.59;;;12.77;100.00
5814;BME280;2933;52.302;8.134;2023-05-21T05:49:35;100729.88;;;12.91;100.00
5814;BME280;2933;52.302;8.134;2023-05-21T05:54:37;100734.66;;;12.99;100.00
5814;BME280;2933;52.302;8.134;2023-05-21T05:59:40;100724.00;;;12.88;100.00
5814;BME280;2933;52.302;8.134;2023-05-21T06:04:42;100727.06;;;12.95;100.00
5814;BME280;2933;52.302;8.134;2023-05-21T06:09:43;100726.78;;;12.99;100.00
5814;BME280;2933;52.302;8.134;2023-05-21T06:14:46;100728.25;;;12.90;100.00
5814;BME280;2933;52.302;8.134;2023-05-21T06:19:48;100720.03;;;12.82;100.00
5814;BME280;2933;52.302;8.134;2023-05-21T06:24:49;100722.78;;;12.93;100.00
5814;BME280;2933;52.302;8.134;2023-05-21T06:29:52;100721.72;;;12.96;100.00
5814;BME280;2933;52.302;8.134;2023-05-21T06:34:54;100729.06;;;13.04;100.00
5814;BME280;2933;52.302;8.134;2023-05-21T06:39:55;100724.03;;;13.14;100.00
5814;BME280;2933;52.302;8.134;2023-05-21T06:44:58;100733.16;;;13.34;100.00
5814;BME280;2933;52.302;8.134;2023-05-21T06:50:00;100724.47;;;13.46;100.00
5814;BME280;2933;52.302;8.134;2023-05-21T06:55:01;100725.66;;;13.42;100.00
5814;BME280;2933;52.302;8.134;2023-05-21T07:00:05;100731.22;;;13.37;100.00
5814;BME280;2933;52.302;8.134;2023-05-21T07:05:09;100725.66;;;13.42;100.00
5814;BME280;2933;52.302;8.134;2023-05-21T07:10:11;100722.19;;;13.54;100.00
5814;BME280;2933;52.302;8.134;2023-05-21T07:15:13;100713.59;;;13.39;100.00
5814;BME280;2933;52.302;8.134;2023-05-21T07:20:15;100713.69;;;13.38;100.00
5814;BME280;2933;52.302;8.134;2023-05-21T07:25:17;100711.47;;;13.32;100.00
5814;BME280;2933;52.302;8.134;2023-05-21T07:30:19;100718.31;;;13.60;100.00
5814;BME280;2933;52.302;8.134;2023-05-21T07:35:21;100714.63;;;13.63;100.00
5814;BME280;2933;52.302;8.134;2023-05-21T07:40:23;100714.44;;;13.90;100.00
5814;BME280;2933;52.302;8.134;2023-05-21T07:45:26;100712.59;;;14.03;100.00
5814;BME280;2933;52.302;8.134;2023-05-21T07:50:27;100707.19;;;14.42;100.00
5814;BME280;2933;52.302;8.134;2023-05-21T07:55:29;100714.28;;;14.53;100.00
5814;BME280;2933;52.302;8.134;2023-05-21T08:00:41;100713.44;;;14.52;100.00
5814;BME280;2933;52.302;8.134;2023-05-21T08:05:43;100720.63;;;14.62;100.00
5814;BME280;2933;52.302;8.134;2023-05-21T08:10:47;100724.84;;;14.89;100.00
5814;BME280;2933;52.302;8.134;2023-05-21T08:15:51;100725.84;;;15.22;100.00
5814;BME280;2933;52.302;8.134;2023-05-21T08:20:52;100727.28;;;15.26;100.00
5814;BME280;2933;52.302;8.134;2023-05-21T08:25:54;100735.66;;;15.65;100.00
5814;BME280;2933;52.302;8.134;2023-05-21T08:30:57;100742.50;;;15.45;100.00
5814;BME280;2933;52.302;8.134;2023-05-21T08:35:59;100742.28;;;15.48;100.00
5814;BME280;2933;52.302;8.134;2023-05-21T08:41:00;100740.25;;;15.86;100.00
5814;BME280;2933;52.302;8.134;2023-05-21T08:46:05;100742.81;;;16.20;100.00
5814;BME280;2933;52.302;8.134;2023-05-21T08:51:06;100741.94;;;15.87;100.00
5814;BME280;2933;52.302;8.134;2023-05-21T08:56:08;100731.16;;;16.22;100.00
5814;BME280;2933;52.302;8.134;2023-05-21T09:01:13;100735.34;;;16.25;100.00
5814;BME280;2933;52.302;8.134;2023-05-21T09:06:18;100717.22;;;16.43;100.00
5814;BME280;2933;52.302;8.134;2023-05-21T09:11:20;100727.75;;;16.43;100.00
5814;BME280;2933;52.302;8.134;2023-05-21T09:16:23;100714.94;;;16.92;100.00
5814;BME280;2933;52.302;8.134;2023-05-21T09:21:26;100719.94;;;17.37;100.00
5814;BME280;2933;52.302;8.134;2023-05-21T09:26:27;100717.03;;;17.09;100.00
5814;BME280;2933;52.302;8.134;2023-05-21T09:31:30;100712.69;;;17.30;100.00
5814;BME280;2933;52.302;8.134;2023-05-21T09:36:36;100712.31;;;17.13;100.00
5814;BME280;2933;52.302;8.134;2023-05-21T09:41:41;100724.50;;;17.35;100.00
5814;BME280;2933;52.302;8.134;2023-05-21T09:46:43;100714.06;;;17.03;100.00
5814;BME280;2933;52.302;8.134;2023-05-21T09:51:45;100711.75;;;17.09;100.00
5814;BME280;2933;52.302;8.134;2023-05-21T09:56:47;100709.31;;;17.27;100.00
5814;BME280;2933;52.302;8.134;2023-05-21T10:01:50;100706.06;;;17.14;100.00
5814;BME280;2933;52.302;8.134;2023-05-21T10:06:54;100704.34;;;17.03;100.00
5814;BME280;2933;52.302;8.134;2023-05-21T10:11:56;100697.97;;;16.85;100.00
5814;BME280;2933;52.302;8.134;2023-05-21T10:17:00;100705.63;;;17.09;100.00
5814;BME280;2933;52.302;8.134;2023-05-21T10:22:02;100701.16;;;17.40;100.00
5814;BME280;2933;52.302;8.134;2023-05-21T10:27:05;100682.06;;;17.58;100.00
5814;BME280;2933;52.302;8.134;2023-05-21T10:32:10;100677.78;;;17.76;100.00
5814;BME280;2933;52.302;8.134;2023-05-21T10:37:15;100681.91;;;18.10;100.00
5814;BME280;2933;52.302;8.134;2023-05-21T10:42:20;100677.34;;;18.32;100.00
5814;BME280;2933;52.302;8.134;2023-05-21T10:47:39;100668.84;;;18.57;100.00
5814;BME280;2933;52.302;8.134;2023-05-21T10:52:58;100677.56;;;18.97;100.00
5814;BME280;2933;52.302;8.134;2023-05-21T10:58:26;100672.75;;;19.48;99.77
5814;BME280;2933;52.302;8.134;2023-05-21T11:03:35;100663.34;;;19.92;98.21
5814;BME280;2933;52.302;8.134;2023-05-21T11:08:37;100651.31;;;19.42;97.41
5814;BME280;2933;52.302;8.134;2023-05-21T11:13:46;100659.38;;;19.50;98.31
5814;BME280;2933;52.302;8.134;2023-05-21T11:19:01;100653.66;;;19.73;97.50
5814;BME280;2933;52.302;8.134;2023-05-21T11:24:04;100652.66;;;19.74;96.95
5814;BME280;2933;52.302;8.134;2023-05-21T11:29:07;100646.94;;;19.78;95.37
5814;BME280;2933;52.302;8.134;2023-05-21T11:34:13;100644.38;;;20.23;94.98
5814;BME280;2933;52.302;8.134;2023-05-21T11:39:17;100644.81;;;20.36;94.21
5814;BME280;2933;52.302;8.134;2023-05-21T11:44:36;100634.91;;;20.20;92.23
5814;BME280;2933;52.302;8.134;2023-05-21T11:49:41;100630.09;;;20.86;93.56
5814;BME280;2933;52.302;8.134;2023-05-21T11:54:44;100628.81;;;21.33;91.32
5814;BME280;2933;52.302;8.134;2023-05-21T11:59:48;100630.94;;;21.72;91.48
5814;BME280;2933;52.302;8.134;2023-05-21T12:04:52;100633.28;;;21.84;90.60
5814;BME280;2933;52.302;8.134;2023-05-21T12:09:53;100627.63;;;21.87;87.61
5814;BME280;2933;52.302;8.134;2023-05-21T12:14:55;100623.34;;;22.02;85.38
5814;BME280;2933;52.302;8.134;2023-05-21T12:19:59;100610.06;;;22.10;86.95
5814;BME280;2933;52.302;8.134;2023-05-21T12:25:05;100616.03;;;21.96;85.01
5814;BME280;2933;52.302;8.134;2023-05-21T12:30:07;100618.19;;;22.01;83.85
5814;BME280;2933;52.302;8.134;2023-05-21T12:35:20;100615.38;;;22.02;85.58
5814;BME280;2933;52.302;8.134;2023-05-21T12:40:33;100613.03;;;22.49;84.61
5814;BME280;2933;52.302;8.134;2023-05-21T12:45:36;100609.19;;;22.59;81.81
5814;BME280;2933;52.302;8.134;2023-05-21T12:50:40;100613.84;;;23.22;81.58
5814;BME280;2933;52.302;8.134;2023-05-21T12:55:41;100600.38;;;23.15;78.85
5814;BME280;2933;52.302;8.134;2023-05-21T13:00:43;100600.47;;;22.82;78.00
5814;BME280;2933;52.302;8.134;2023-05-21T13:05:46;100602.19;;;23.23;78.89
5814;BME280;2933;52.302;8.134;2023-05-21T13:10:48;100601.06;;;23.49;75.29
5814;BME280;2933;52.302;8.134;2023-05-21T13:15:49;100601.47;;;23.37;76.67
5814;BME280;2933;52.302;8.134;2023-05-21T13:20:52;100599.03;;;23.11;77.73
5814;BME280;2933;52.302;8.134;2023-05-21T13:25:54;100598.44;;;23.40;76.46
5814;BME280;2933;52.302;8.134;2023-05-21T13:30:55;100591.03;;;23.19;76.53
5814;BME280;2933;52.302;8.134;2023-05-21T13:35:58;100582.22;;;22.63;77.61
5814;BME280;2933;52.302;8.134;2023-05-21T13:40:59;100589.63;;;22.92;76.85
5814;BME280;2933;52.302;8.134;2023-05-21T13:46:01;100586.34;;;22.82;76.69
5814;BME280;2933;52.302;8.134;2023-05-21T13:51:05;100586.53;;;22.80;77.66
5814;BME280;2933;52.302;8.134;2023-05-21T13:56:06;100590.19;;;22.71;77.58
5814;BME280;2933;52.302;8.134;2023-05-21T14:01:08;100591.88;;;22.72;78.67
5814;BME280;2933;52.302;8.134;2023-05-21T14:06:11;100586.72;;;22.62;79.40
5814;BME280;2933;52.302;8.134;2023-05-21T14:11:12;100584.78;;;22.96;80.21
5814;BME280;2933;52.302;8.134;2023-05-21T14:16:14;100581.88;;;22.74;80.07
5814;BME280;2933;52.302;8.134;2023-05-21T14:21:17;100573.41;;;22.62;79.87
5814;BME280;2933;52.302;8.134;2023-05-21T14:26:18;100570.16;;;22.91;80.91
5814;BME280;2933;52.302;8.134;2023-05-21T14:31:20;100569.63;;;22.96;80.50
5814;BME280;2933;52.302;8.134;2023-05-21T14:36:23;100569.22;;;23.24;79.21
5814;BME280;2933;52.302;8.134;2023-05-21T14:41:25;100568.09;;;23.10;79.73
5814;BME280;2933;52.302;8.134;2023-05-21T14:46:27;100565.53;;;22.77;79.31
5814;BME280;2933;52.302;8.134;2023-05-21T14:51:30;100558.63;;;23.07;77.73
5814;BME280;2933;52.302;8.134;2023-05-21T14:56:32;100557.47;;;23.33;76.33
5814;BME280;2933;52.302;8.134;2023-05-21T15:01:33;100546.19;;;23.78;75.32
5814;BME280;2933;52.302;8.134;2023-05-21T15:06:39;100542.94;;;23.67;74.98
5814;BME280;2933;52.302;8.134;2023-05-21T15:11:41;100525.03;;;23.99;75.49
5814;BME280;2933;52.302;8.134;2023-05-21T15:16:43;100530.63;;;23.66;73.75
5814;BME280;2933;52.302;8.134;2023-05-21T15:21:46;100533.09;;;23.68;74.63
5814;BME280;2933;52.302;8.134;2023-05-21T15:26:50;100523.66;;;23.57;75.95
5814;BME280;2933;52.302;8.134;2023-05-21T15:31:52;100518.72;;;23.54;77.39
5814;BME280;2933;52.302;8.134;2023-05-21T15:36:55;100510.41;;;23.26;77.40
5814;BME280;2933;52.302;8.134;2023-05-21T15:41:57;100505.78;;;23.43;77.76
5814;BME280;2933;52.302;8.134;2023-05-21T15:46:59;100504.47;;;23.38;77.99
5814;BME280;2933;52.302;8.134;2023-05-21T15:52:02;100508.56;;;23.26;78.48
5814;BME280;2933;52.302;8.134;2023-05-21T15:57:03;100506.84;;;23.33;77.56
5814;BME280;2933;52.302;8.134;2023-05-21T16:02:06;100502.47;;;23.40;78.22
5814;BME280;2933;52.302;8.134;2023-05-21T16:07:09;100508.09;;;23.14;77.27
5814;BME280;2933;52.302;8.134;2023-05-21T16:12:12;100510.13;;;23.44;77.88
5814;BME280;2933;52.302;8.134;2023-05-21T16:17:13;100515.31;;;23.05;78.34
5814;BME280;2933;52.302;8.134;2023-05-21T16:22:16;100520.59;;;23.22;78.25
5814;BME280;2933;52.302;8.134;2023-05-21T16:27:19;100511.94;;;23.20;78.39
5814;BME280;2933;52.302;8.134;2023-05-21T16:32:20;100520.09;;;23.18;76.31
5814;BME280;2933;52.302;8.134;2023-05-21T16:37:23;100517.66;;;23.40;74.95
5814;BME280;2933;52.302;8.134;2023-05-21T16:42:25;100520.00;;;23.58;75.59
5814;BME280;2933;52.302;8.134;2023-05-21T16:47:26;100509.00;;;23.61;76.43
5814;BME280;2933;52.302;8.134;2023-05-21T16:52:29;100504.66;;;23.83;72.56
5814;BME280;2933;52.302;8.134;2023-05-21T16:57:31;100511.25;;;23.96;72.94
5814;BME280;2933;52.302;8.134;2023-05-21T17:02:32;100506.72;;;23.96;72.62
5814;BME280;2933;52.302;8.134;2023-05-21T17:07:35;100496.88;;;23.97;74.17
5814;BME280;2933;52.302;8.134;2023-05-21T17:12:37;100500.00;;;23.62;73.99
5814;BME280;2933;52.302;8.134;2023-05-21T17:17:39;100490.28;;;23.46;74.26
5814;BME280;2933;52.302;8.134;2023-05-21T17:22:42;100482.03;;;23.33;74.79
5814;BME280;2933;52.302;8.134;2023-05-21T17:27:43;100480.91;;;23.27;76.05
5814;BME280;2933;52.302;8.134;2023-05-21T17:32:45;100472.81;;;23.12;76.78
5814;BME280;2933;52.302;8.134;2023-05-21T17:37:47;100478.69;;;23.07;78.53
5814;BME280;2933;52.302;8.134;2023-05-21T17:42:49;100472.50;;;23.07;78.56
5814;BME280;2933;52.302;8.134;2023-05-21T17:47:51;100476.47;;;22.88;78.84
5814;BME280;2933;52.302;8.134;2023-05-21T17:52:54;100474.19;;;22.77;80.48
5814;BME280;2933;52.302;8.134;2023-05-21T17:57:55;100479.53;;;22.68;81.08
5814;BME280;2933;52.302;8.134;2023-05-21T18:02:57;100487.22;;;22.63;82.04
5814;BME280;2933;52.302;8.134;2023-05-21T18:08:00;100477.38;;;22.64;81.14
5814;BME280;2933;52.302;8.134;2023-05-21T18:13:02;100479.91;;;22.65;81.28
5814;BME280;2933;52.302;8.134;2023-05-21T18:18:03;100476.09;;;22.51;82.49
5814;BME280;2933;52.302;8.134;2023-05-21T18:23:06;100480.31;;;22.37;83.17
5814;BME280;2933;52.302;8.134;2023-05-21T18:28:08;100478.63;;;22.36;83.96
5814;BME280;2933;52.302;8.134;2023-05-21T18:33:10;100481.34;;;22.20;84.79
5814;BME280;2933;52.302;8.134;2023-05-21T18:38:13;100487.66;;;22.19;85.26
5814;BME280;2933;52.302;8.134;2023-05-21T18:43:14;100489.81;;;22.15;86.52
5814;BME280;2933;52.302;8.134;2023-05-21T18:48:16;100489.34;;;22.03;87.01
5814;BME280;2933;52.302;8.134;2023-05-21T18:53:19;100484.53;;;22.07;87.05
5814;BME280;2933;52.302;8.134;2023-05-21T18:58:21;100482.91;;;21.81;88.42
5814;BME280;2933;52.302;8.134;2023-05-21T19:03:23;100479.06;;;21.75;88.94
5814;BME280;2933;52.302;8.134;2023-05-21T19:08:26;100491.53;;;21.75;89.96
5814;BME280;2933;52.302;8.134;2023-05-21T19:13:28;100482.19;;;21.54;91.41
5814;BME280;2933;52.302;8.134;2023-05-21T19:18:29;100496.66;;;21.43;92.98
5814;BME280;2933;52.302;8.134;2023-05-21T19:23:33;100491.63;;;21.24;93.95
5814;BME280;2933;52.302;8.134;2023-05-21T19:28:34;100491.81;;;21.22;95.79
5814;BME280;2933;52.302;8.134;2023-05-21T19:33:36;100495.38;;;21.05;97.92
5814;BME280;2933;52.302;8.134;2023-05-21T19:38:44;100507.63;;;20.89;100.00
5814;BME280;2933;52.302;8.134;2023-05-21T19:43:47;100502.97;;;20.83;99.71
5814;BME280;2933;52.302;8.134;2023-05-21T19:48:49;100502.63;;;20.78;100.00
5814;BME280;2933;52.302;8.134;2023-05-21T19:53:52;100498.09;;;20.70;100.00
5814;BME280;2933;52.302;8.134;2023-05-21T19:58:53;100505.31;;;20.60;100.00
5814;BME280;2933;52.302;8.134;2023-05-21T20:03:55;100505.44;;;20.50;100.00
5814;BME280;2933;52.302;8.134;2023-05-21T20:08:59;100504.44;;;20.51;100.00
5814;BME280;2933;52.302;8.134;2023-05-21T20:14:00;100500.66;;;20.54;100.00
5814;BME280;2933;52.302;8.134;2023-05-21T20:19:07;100502.66;;;20.52;100.00
5814;BME280;2933;52.302;8.134;2023-05-21T20:24:11;100501.78;;;20.43;100.00
5814;BME280;2933;52.302;8.134;2023-05-21T20:29:12;100498.44;;;20.41;100.00
5814;BME280;2933;52.302;8.134;2023-05-21T20:34:14;100493.75;;;20.34;100.00
5814;BME280;2933;52.302;8.134;2023-05-21T20:39:18;100499.06;;;20.34;100.00
5814;BME280;2933;52.302;8.134;2023-05-21T20:44:21;100492.41;;;20.30;100.00
5814;BME280;2933;52.302;8.134;2023-05-21T20:49:22;100490.06;;;20.27;100.00
5814;BME280;2933;52.302;8.134;2023-05-21T20:54:26;100493.88;;;20.25;100.00
5814;BME280;2933;52.302;8.134;2023-05-21T20:59:29;100489.41;;;20.25;100.00
5814;BME280;2933;52.302;8.134;2023-05-21T21:04:31;100501.72;;;20.08;100.00
5814;BME280;2933;52.302;8.134;2023-05-21T21:09:34;100502.50;;;20.00;100.00
5814;BME280;2933;52.302;8.134;2023-05-21T21:14:36;100509.84;;;20.07;100.00
5814;BME280;2933;52.302;8.134;2023-05-21T21:19:37;100514.47;;;20.05;100.00
5814;BME280;2933;52.302;8.134;2023-05-21T21:24:40;100519.91;;;20.03;100.00
5814;BME280;2933;52.302;8.134;2023-05-21T21:29:42;100516.75;;;19.99;100.00
5814;BME280;2933;52.302;8.134;2023-05-21T21:34:43;100505.94;;;20.19;100.00
5814;BME280;2933;52.302;8.134;2023-05-21T21:39:46;100507.81;;;20.27;100.00
5814;BME280;2933;52.302;8.134;2023-05-21T21:44:47;100510.50;;;20.09;100.00
5814;BME280;2933;52.302;8.134;2023-05-21T21:49:49;100509.44;;;20.01;100.00
5814;BME280;2933;52.302;8.134;2023-05-21T21:54:52;100511.53;;;19.90;100.00
5814;BME280;2933;52.302;8.134;2023-05-21T21:59:54;100505.63;;;19.96;100.00
5814;BME280;2933;52.302;8.134;2023-05-21T22:04:55;100513.53;;;19.78;100.00
5814;BME280;2933;52.302;8.134;2023-05-21T22:09:58;100511.81;;;19.68;100.00
5814;BME280;2933;52.302;8.134;2023-05-21T22:15:00;100504.34;;;19.46;100.00
5814;BME280;2933;52.302;8.134;2023-05-21T22:20:05;100491.47;;;19.33;100.00
5814;BME280;2933;52.302;8.134;2023-05-21T22:25:09;100490.78;;;19.31;100.00
5814;BME280;2933;52.302;8.134;2023-05-21T22:30:11;100480.47;;;19.28;100.00
5814;BME280;2933;52.302;8.134;2023-05-21T22:35:12;100481.00;;;19.13;100.00
5814;BME280;2933;52.302;8.134;2023-05-21T22:40:15;100479.63;;;19.09;100.00
5814;BME280;2933;52.302;8.134;2023-05-21T22:45:17;100477.44;;;19.04;100.00
5814;BME280;2933;52.302;8.134;2023-05-21T22:50:21;100473.50;;;18.81;100.00
5814;BME280;2933;52.302;8.134;2023-05-21T22:55:25;100476.53;;;18.86;100.00
5814;BME280;2933;52.302;8.134;2023-05-21T23:00:27;100474.03;;;18.84;100.00
5814;BME280;2933;52.302;8.134;2023-05-21T23:05:28;100473.75;;;18.87;100.00
5814;BME280;2933;52.302;8.134;2023-05-21T23:10:31;100455.75;;;18.63;100.00
5814;BME280;2933;52.302;8.134;2023-05-21T23:15:33;100464.19;;;18.49;100.00
5814;BME280;2933;52.302;8.134;2023-05-21T23:20:37;100463.25;;;18.40;100.00
5814;BME280;2933;52.302;8.134;2023-05-21T23:25:41;100468.56;;;18.40;100.00
5814;BME280;2933;52.302;8.134;2023-05-21T23:30:42;100468.44;;;18.32;100.00
5814;BME280;2933;52.302;8.134;2023-05-21T23:35:44;100476.06;;;18.35;100.00
5814;BME280;2933;52.302;8.134;2023-05-21T23:40:47;100470.09;;;18.33;100.00
5814;BME280;2933;52.302;8.134;2023-05-21T23:45:48;100474.25;;;18.35;100.00
5814;BME280;2933;52.302;8.134;2023-05-21T23:50:50;100476.25;;;18.23;100.00
5814;BME280;2933;52.302;8.134;2023-05-21T23:55:53;100479.44;;;18.17;100.00
